Tiempo atmosférico en la estación meteorológica de Chelva, València/Valencia (546 m.)



Fecha
DESCASC
Temp. máxima en grados centígrados (hora)
DESCASC
Temp. mínima en grados centígrados (hora)
DESCASC
Temp. media en grados centígrados
DESCASC
Racha de viento máxima en m/sg (hora)
DESCASC
Velocidad máxima media en intervalos de 10 minutos(hora)
DESCASC
Precipitaciones diarias en mm
DESCASC
Precipitaciones de 00:00 a 06:00 en mm
DESCASC
Precipitaciones de 06:00 a 12:00 en mm
DESCASC
Precipitaciones de 12:00 a 18:00 en mm
DESCASC
Precipitaciones de 18:00 a 24:00 en mm
DESCASC
07-08-2020 35.5 (16:10) 18.3 (06:30) 26.9 9.17 (16:30) 5.28 (16:40) 0 0 0 0 0
06-08-2020 33.5 (15:30) 18.2 (06:30) 25.9 10.28 (15:40) 5.56 (16:50) 0 0 0 0 0
05-08-2020 32.5 (16:00) 20.2 (07:10) 26.4 10.56 (17:20) 5.83 (18:00) 0 0 0 0 0
04-08-2020 32.3 (13:50) 18.7 (06:20) 25.5 11.11 (15:50) 6.11 (16:00) 0 0 0 0 0
03-08-2020 31.7 (14:10) 21.4 (07:00) 26.6 9.72 (15:40) 5.83 (14:30) 0 0 0 0 0
02-08-2020 34.1 (14:50) 19.9 (07:20) 27 11.67 (16:40) 6.11 (17:00) 0 0 0 0 0
01-08-2020 40.9 (16:40) 21.5 (00:00) 31.2 13.61 (18:10) 7.22 (14:50) 0 0 0 0 0
31-07-2020 38.5 (15:50) 19.9 (07:10) 29.2 11.67 (01:50) 6.11 (02:10) 0.2 0.2 0 0 0
30-07-2020 34.7 (15:30) 18.3 (00:00) 26.5 12.78 (21:40) 6.11 (21:00) 0.2 0 0 0 0.2
29-07-2020 33 (15:40) 18.2 (00:00) 25.6 11.94 (14:10) 5.83 (16:20) 0 0 0 0 0
28-07-2020 34.6 (15:30) 20.3 (07:00) 27.4 11.11 (16:30) 6.11 (16:30) 0 0 0 0 0
27-07-2020 36.3 (15:10) 17.8 (00:00) 27 9.44 (17:10) 5 (17:10) 0 0 0 0 0
26-07-2020 33.8 (14:50) 18.1 (00:00) 25.9 10 (18:30) 5.83 (18:30) 0 0 0 0 0
25-07-2020 33.1 (16:20) 17.5 (06:50) 25.3 10.83 (17:00) 5.28 (17:40) 0 0 0 0 0
24-07-2020 33.2 (14:40) 18.2 (00:00) 25.7 10.83 (17:10) 5.83 (16:40) 0 0 0 0 0
23-07-2020 34.9 (16:10) 16.2 (00:00) 25.6 10 (19:00) 5.28 (18:00) 0 0 0 0 0
22-07-2020 28.6 (13:30) 17.1 (07:00) 22.9 11.67 (15:10) 5.56 (15:10) 2 0 1.6 0.4 0
21-07-2020 32.2 (16:10) 16.8 (00:00) 24.5 10.56 (17:40) 6.11 (17:40) 0 0 0 0 0
20-07-2020 31.9 (17:20) 20.6 (06:10) 26.3 10.56 (15:50) 6.11 (15:40) 0 0 0 0 0
19-07-2020 33.5 (15:30) 17.2 (00:00) 25.4 11.11 (17:00) 6.11 (18:30) 0 0 0 0 0
18-07-2020 31.5 (16:00) 16.3 (00:00) 23.9 8.89 (18:20) 5.28 (18:20) 0 0 0 0 0
17-07-2020 29.6 (14:30) 17.9 (00:00) 23.8 8.89 (18:10) 5.56 (18:30) 0 0 0 0 0
16-07-2020 30.6 (15:50) 17.9 (00:00) 24.3 10 (17:00) 5.56 (17:00) 0 0 0 0 0
15-07-2020 30.5 (16:50) 14.3 (05:40) 22.4 8.33 (16:40) 4.44 (17:50) 0 0 0 0 0
14-07-2020 28.5 (14:10) 17.1 (00:00) 22.8 10 (16:10) 6.11 (16:10) 4.8 2.2 0 1.2 1.4
13-07-2020 30.7 (16:30) 17.5 (06:50) 24.1 9.17 (18:40) 5 (19:20) 0.2 0 0.2 0 0

Gráficas

Temp. máximas Temp. mínimas Temp. medias Precipitaciones Rachas de viento máximas Velocidades máximas media en intervalos de 10 minutos

Datos horarios

Fecha y hora oficial Temperatura (ºC) Velocidad del viento (km/h) Dirección del viento Racha (km/h) Dirección de racha Precipitación (mm) Presión (hPa) Tendencia (hPa) Humedad (%)
2020-08-11 23:00:00 22.5 4 Nordeste 10 Sur 0 -- -- 65
2020-08-11 22:00:00 24.2 7 Sur 30 Sudeste 0 -- -- 58
2020-08-11 21:00:00 24.4 18 Sudeste 35 Sur 0 -- -- 61
2020-08-11 20:00:00 25.7 18 Sudeste 43 Este 0 -- -- 57
2020-08-11 19:00:00 28.1 23 Sudeste 49 Sudeste 0 -- -- 42
2020-08-11 18:00:00 29.5 27 Sudeste 44 Sur 0 -- -- 43
2020-08-11 17:00:00 30 22 Sudeste 42 Sudeste 0 -- -- 44
2020-08-11 16:00:00 29.7 21 Sudeste 45 Sudeste 0 -- -- 44
2020-08-11 15:00:00 30.4 12 Sur 32 Este 0 -- -- 38
2020-08-11 14:00:00 26.8 14 Sudeste 23 Sudeste 0 -- -- 59
2020-08-11 13:00:00 25.5 6 Sur 13 Sudeste 0 -- -- 63
2020-08-11 12:00:00 24.7 5 Sudeste 8 Este 0 -- -- 63
2020-08-11 11:00:00 23.7 0 Calma 8 Sur 0 -- -- 63
2020-08-11 10:00:00 22 3 Norte 13 Sudoeste 0 -- -- 70
2020-08-11 09:00:00 20.4 5 Noroeste 9 Norte 0 -- -- 76
2020-08-11 08:00:00 20 2 Oeste 5 Noroeste 0 -- -- 77
2020-08-11 07:00:00 19.5 0 Calma 5 Este 0 -- -- 81
2020-08-11 06:00:00 19.5 0 Calma 6 Nordeste 0 -- -- 82
2020-08-11 05:00:00 20.4 4 Oeste 9 Oeste 0 -- -- 82
2020-08-11 04:00:00 20.8 0 Calma 6 Noroeste 0 -- -- 82
2020-08-11 03:00:00 21 4 Oeste 8 Oeste 0 -- -- 80
2020-08-11 02:00:00 21.2 0 Calma 5 Oeste 0 -- -- 81
2020-08-11 01:00:00 22.1 0 Calma 5 Este 0 -- -- 76
2020-08-11 00:00:00 22.8 3 Sudeste 9 Sudeste 0 -- -- 73
2020-08-10 23:00:00 23.3 4 Sudeste 14 Este 0 -- -- 71
2020-08-10 22:00:00 23.8 8 Este 21 Sudeste 0 -- -- 70
2020-08-10 21:00:00 24.8 11 Sudeste 24 Sudeste 0 -- -- 66
2020-08-10 20:00:00 26.8 15 Sudeste 35 Sur 0 -- -- 54
2020-08-10 19:00:00 28.8 15 Sudeste 31 Sudeste 0 -- -- 50
2020-08-10 18:00:00 31.3 18 Sudeste 31 Sudeste 0 -- -- 45
2020-08-10 17:00:00 32 16 Sudeste 30 Sudeste 0 -- -- 43
2020-08-10 16:00:00 34.7 15 Sudeste 27 Sudeste 0 -- -- 31
2020-08-10 15:00:00 33.9 8 Sudeste 14 Sudeste 0 -- -- 27
2020-08-10 14:00:00 30.9 7 Sudeste 17 Sudeste 0 -- -- 31
2020-08-10 13:00:00 33.1 6 Sudeste 16 Sudeste 0 -- -- 26
2020-08-10 12:00:00 31.8 4 Sur 10 Sur 0 -- -- 30
2020-08-10 11:00:00 27.5 4 Noroeste 13 Noroeste 0 -- -- 36
2020-08-10 10:00:00 23.2 3 Sudeste 7 Oeste 0 -- -- 53
2020-08-10 09:00:00 21.2 2 Oeste 15 Noroeste 0 -- -- 56
2020-08-10 08:00:00 19.2 4 Norte 9 Oeste 0 -- -- 59
2020-08-10 07:00:00 19.3 3 Noroeste 8 Noroeste 0 -- -- 60
2020-08-10 06:00:00 19.3 3 Norte 9 Oeste 0 -- -- 62
2020-08-10 05:00:00 19.9 0 Calma 9 Sudoeste 0 -- -- 60
2020-08-10 04:00:00 20 4 Noroeste 10 Nordeste 0 -- -- 65
2020-08-10 03:00:00 21.6 2 Norte 12 Este 0 -- -- 59
2020-08-10 02:00:00 22.7 3 Sur 14 Oeste 0 -- -- 55
2020-08-10 01:00:00 23.1 8 Este 14 Este 0 -- -- 52
2020-08-10 00:00:00 23.3 6 Este 11 Este 0 -- -- 56
2020-08-09 23:00:00 24.3 9 Este 16 Sudeste 0 -- -- 53
2020-08-09 22:00:00 25.1 10 Sudeste 25 Sudeste 0 -- -- 52
2020-08-09 21:00:00 26.5 13 Sudeste 29 Sudeste 0 -- -- 46
2020-08-09 20:00:00 29.7 15 Sudeste 33 Sudeste 0 -- -- 44
2020-08-09 19:00:00 32.3 19 Sudeste 35 Sudeste 0 -- -- 37
2020-08-09 18:00:00 34.2 15 Sudeste 34 Sudeste 0 -- -- 34
2020-08-09 17:00:00 34.7 21 Sudeste 37 Sudeste 0 -- -- 33
2020-08-09 16:00:00 35.5 17 Sudeste 32 Sur 0 -- -- 32
2020-08-09 15:00:00 35.5 15 Sudeste 34 Sudeste 0 -- -- 32
2020-08-09 14:00:00 35 15 Sudeste 31 Sudeste 0 -- -- 31
2020-08-09 13:00:00 34.6 14 Sudeste 25 Sur 0 -- -- 33
2020-08-09 12:00:00 33.3 9 Sudeste 18 Sur 0 -- -- 32
2020-08-09 11:00:00 31.5 3 Sudeste 6 Oeste 0 -- -- 38
2020-08-09 10:00:00 27.3 3 Sudoeste 7 Noroeste 0 -- -- 48
2020-08-09 09:00:00 24 4 Oeste 12 Noroeste 0 -- -- 53
2020-08-09 08:00:00 21.7 6 Oeste 17 Noroeste 0 -- -- 61
2020-08-09 07:00:00 21 6 Noroeste 20 Noroeste 0 -- -- 62
2020-08-09 06:00:00 20 4 Noroeste 9 Noroeste 0 -- -- 72
2020-08-09 05:00:00 21 3 Nordeste 6 Nordeste 0 -- -- 69
2020-08-09 04:00:00 22.6 0 Calma 12 Noroeste 0 -- -- 62
2020-08-09 03:00:00 24.1 4 Noroeste 17 Oeste 0 -- -- 58
2020-08-09 02:00:00 24.7 6 Oeste 31 Noroeste 0 -- -- 57
2020-08-09 01:00:00 24.8 3 Noroeste 34 Oeste 0 -- -- 58
2020-08-09 00:00:00 24 10 Oeste 39 Noroeste 0.2 -- -- 58
2020-08-08 23:00:00 27.8 22 Oeste 62 Oeste 0.2 -- -- 37
2020-08-08 22:00:00 23 5 Norte 9 Nordeste 0 -- -- 80
2020-08-08 21:00:00 23.7 5 Este 18 Nordeste 0 -- -- 76
2020-08-08 20:00:00 23.9 14 Nordeste 25 Nordeste 7 -- -- 72
2020-08-08 19:00:00 30.2 3 Oeste 28 Sudeste 0 -- -- 40
2020-08-08 18:00:00 31.9 15 Sudeste 32 Este 0 -- -- 36
2020-08-08 17:00:00 32.8 20 Este 35 Sudeste 0 -- -- 36
2020-08-08 16:00:00 35.2 18 Sudeste 33 Sudeste 0 -- -- 30
2020-08-08 15:00:00 35.3 18 Sudeste 35 Sur 0 -- -- 32
2020-08-08 14:00:00 35.4 15 Sudeste 36 Sudeste 0 -- -- 28
2020-08-08 13:00:00 34.9 15 Sudeste 28 Sudeste 0 -- -- 28
2020-08-08 12:00:00 34 13 Sudeste 22 Sur 0 -- -- 30
2020-08-08 11:00:00 32.5 4 Sudeste 8 Sudoeste 0 -- -- 34
2020-08-08 10:00:00 29 2 Oeste 6 Oeste 0 -- -- 39
2020-08-08 09:00:00 25.4 0 Calma 9 Oeste 0 -- -- 45
2020-08-08 08:00:00 21.3 0 Calma 8 Oeste 0 -- -- 56
2020-08-08 07:00:00 20.8 4 Oeste 10 Oeste 0 -- -- 56
2020-08-08 06:00:00 20.9 3 Nordeste 12 Oeste 0 -- -- 57
2020-08-08 05:00:00 21.4 3 Norte 6 Nordeste 0 -- -- 56
2020-08-08 04:00:00 21.9 3 Noroeste 8 Oeste 0 -- -- 54
2020-08-08 03:00:00 22.1 3 Este 5 Este 0 -- -- 53
2020-08-08 02:00:00 22.8 4 Nordeste 8 Este 0 -- -- 52
2020-08-08 01:00:00 22.3 3 Oeste 7 Oeste 0 -- -- 53
2020-08-08 00:00:00 23.4 4 Norte 6 Nordeste 0 -- -- 49
2020-08-07 23:00:00 24.5 0 Calma 9 Sudeste 0 -- -- 50
2020-08-07 22:00:00 26.4 6 Sudeste 13 Este 0 -- -- 41
2020-08-07 21:00:00 27 6 Este 24 Sudeste 0 -- -- 40
2020-08-07 20:00:00 29 12 Sudeste 30 Sudeste 0 -- -- 43
2020-08-07 19:00:00 31.8 16 Sudeste 31 Sudeste 0 -- -- 39
2020-08-07 18:00:00 33.5 18 Sudeste 31 Sudeste 0 -- -- 39
2020-08-07 17:00:00 34.4 19 Sudeste 33 Sudeste 0 -- -- 37
2020-08-07 16:00:00 35.2 17 Sudeste 32 Sudeste 0 -- -- 35
2020-08-07 15:00:00 35.3 15 Sudeste 27 Sudeste 0 -- -- 32
2020-08-07 14:00:00 34.7 14 Sudeste 30 Sudeste 0 -- -- 29
2020-08-07 13:00:00 34.4 10 Sudeste 21 Sudeste 0 -- -- 29
2020-08-07 12:00:00 32.3 8 Sudeste 13 Sudeste 0 -- -- 28
2020-08-07 11:00:00 30.1 4 Sur 10 Sudoeste 0 -- -- 35
2020-08-07 10:00:00 25.3 3 Oeste 7 Oeste 0 -- -- 41
2020-08-07 09:00:00 22.3 0 Calma 7 Oeste 0 -- -- 52
2020-08-07 08:00:00 19.3 2 Noroeste 5 Oeste 0 -- -- 59
2020-08-07 07:00:00 18.7 5 Oeste 8 Oeste 0 -- -- 62
2020-08-07 06:00:00 18.6 0 Calma 8 Oeste 0 -- -- 64
2020-08-07 05:00:00 18.7 2 Noroeste 5 Oeste 0 -- -- 70
2020-08-07 04:00:00 19.2 3 Nordeste 6 Oeste 0 -- -- 70
2020-08-07 03:00:00 19.6 3 Nordeste 7 Oeste 0 -- -- 69
2020-08-07 02:00:00 20.2 3 Este 9 Este 0 -- -- 70
2020-08-07 01:00:00 21.2 0 Calma 7 Nordeste 0 -- -- 67
2020-08-07 00:00:00 22.2 2 Norte 8 Este 0 -- -- 64
2020-08-06 23:00:00 23.2 5 Nordeste 13 Este 0 -- -- 60
2020-08-06 22:00:00 24.1 10 Sudeste 23 Sudeste 0 -- -- 57
2020-08-06 21:00:00 25.4 13 Sudeste 31 Sudeste 0 -- -- 54
2020-08-06 20:00:00 27.9 19 Sudeste 33 Sudeste 0 -- -- 55
2020-08-06 19:00:00 29.9 19 Sudeste 33 Sudeste 0 -- -- 51
2020-08-06 18:00:00 31.6 18 Sudeste 33 Sudeste 0 -- -- 50
2020-08-06 17:00:00 32.7 20 Sudeste 36 Sudeste 0 -- -- 48
2020-08-06 16:00:00 33.2 18 Sudeste 37 Sur 0 -- -- 43
2020-08-06 15:00:00 33 14 Sudeste 30 Sudeste 0 -- -- 43
2020-08-06 14:00:00 32.5 14 Sudeste 23 Sudeste 0 -- -- 42
2020-08-06 13:00:00 30.8 10 Sudeste 21 Sudeste 0 -- -- 43
2020-08-06 12:00:00 28.9 9 Sudeste 18 Sudeste 0 -- -- 46
2020-08-06 11:00:00 26.1 5 Sudeste 14 Sudeste 0 -- -- 61
2020-08-06 10:00:00 24.2 4 Sur 7 Sur 0 -- -- 67
2020-08-06 09:00:00 21.9 2 Oeste 4 Sudoeste 0 -- -- 73
2020-08-06 08:00:00 19.2 0 Calma 6 Norte 0 -- -- 79
2020-08-06 07:00:00 18.2 0 Calma 8 Nordeste 0 -- -- 77
2020-08-06 06:00:00 18.6 0 Calma 8 Nordeste 0 -- -- 81
2020-08-06 05:00:00 19.2 3 Nordeste 6 Nordeste 0 -- -- 84
2020-08-06 04:00:00 19.8 2 Nordeste 8 Este 0 -- -- 88
2020-08-06 03:00:00 20.7 0 Calma 5 Oeste 0 -- -- 86
2020-08-06 02:00:00 21.3 2 Oeste 5 Sudoeste 0 -- -- 86
2020-08-06 01:00:00 21.6 0 Calma 9 Sur 0 -- -- 86
2020-08-06 00:00:00 22.6 5 Sur 15 Sudeste 0 -- -- 82
2020-08-05 23:00:00 23 8 Sudeste 20 Sudeste 0 -- -- 75
2020-08-05 22:00:00 23.4 13 Sudeste 28 Sudeste 0 -- -- 74
2020-08-05 21:00:00 24.7 14 Sudeste 35 Sudeste 0 -- -- 72
2020-08-05 20:00:00 27.5 17 Sudeste 33 Sudeste 0 -- -- 63
2020-08-05 19:00:00 29.1 19 Sudeste 32 Sudeste 0 -- -- 60
2020-08-05 18:00:00 30 21 Sudeste 38 Sudeste 0 -- -- 58
2020-08-05 17:00:00 31.6 18 Sudeste 35 Sudeste 0 -- -- 53
2020-08-05 16:00:00 32.5 15 Sudeste 31 Sudeste 0 -- -- 47
2020-08-05 15:00:00 32.3 14 Sudeste 27 Sudeste 0 -- -- 47
2020-08-05 14:00:00 30.6 12 Sudeste 21 Sur 0 -- -- 51
2020-08-05 13:00:00 29.7 8 Sudeste 19 Sudeste 0 -- -- 53
2020-08-05 12:00:00 27.8 7 Sur 19 Sur 0 -- -- 59
2020-08-05 11:00:00 26.5 8 Sur 19 Sudeste 0 -- -- 64
2020-08-05 10:00:00 25.2 6 Sudeste 11 Sudeste 0 -- -- 67
2020-08-05 09:00:00 23.7 2 Sur 5 Este 0 -- -- 73
2020-08-05 08:00:00 21.1 0 Calma 4 Oeste 0 -- -- 86
2020-08-05 07:00:00 20.3 5 Este 8 Este 0 -- -- 83
2020-08-05 06:00:00 21.8 5 Noroeste 8 Noroeste 0 -- -- 85
2020-08-05 05:00:00 22.2 0 Calma 6 Nordeste 0 -- -- 80
2020-08-05 04:00:00 21.9 2 Este 4 Sudeste 0 -- -- 88
2020-08-05 03:00:00 22 0 Calma 8 Sudeste 0 -- -- 87
2020-08-05 02:00:00 22.3 4 Sudeste 10 Sudeste 0 -- -- 85
2020-08-05 01:00:00 22.6 5 Sudeste 10 Sudeste 0 -- -- 84
2020-08-05 00:00:00 22.5 8 Sudeste 13 Sudeste 0 -- -- 83
2020-08-04 23:00:00 22.6 6 Sudeste 15 Sudeste 0 -- -- 80
2020-08-04 22:00:00 23.2 10 Sudeste 20 Sudeste 0 -- -- 76
2020-08-04 21:00:00 24.1 13 Sudeste 29 Sudeste 0 -- -- 70
2020-08-04 20:00:00 26.6 14 Sudeste 31 Sudeste 0 -- -- 61
2020-08-04 19:00:00 27.7 19 Sudeste 34 Sudeste 0 -- -- 57
2020-08-04 18:00:00 28.7 18 Sudeste 37 Sur 0 -- -- 51
2020-08-04 17:00:00 29.1 21 Sudeste 40 Sudeste 0 -- -- 49
2020-08-04 16:00:00 29.3 22 Sudeste 40 Sudeste 0 -- -- 50
2020-08-04 15:00:00 30.2 19 Sudeste 35 Sudeste 0 -- -- 50
2020-08-04 14:00:00 31.4 14 Sudeste 24 Sudeste 0 -- -- 42
2020-08-04 13:00:00 31.4 8 Sudeste 18 Sur 0 -- -- 36
2020-08-04 12:00:00 29.7 6 Sudeste 12 Sur 0 -- -- 39
2020-08-04 11:00:00 26.6 5 Sudoeste 19 Oeste 0 -- -- 40
2020-08-04 10:00:00 24.2 10 Oeste 21 Oeste 0 -- -- 44
2020-08-04 09:00:00 21.7 7 Oeste 13 Oeste 0 -- -- 52
2020-08-04 08:00:00 19.8 4 Noroeste 8 Noroeste 0 -- -- 60
2020-08-04 07:00:00 19.6 3 Este 5 Sudeste 0 -- -- 74
2020-08-04 06:00:00 18.9 0 Calma 6 Este 0 -- -- 83
2020-08-04 05:00:00 19.7 0 Calma 5 Este 0 -- -- 81
2020-08-04 04:00:00 20.1 0 Calma 9 Este 0 -- -- 83
2020-08-04 03:00:00 20.1 3 Nordeste 10 Nordeste 0 -- -- 82
2020-08-04 02:00:00 20.8 2 Nordeste 7 Nordeste 0 -- -- 82
2020-08-04 01:00:00 21.3 5 Este 9 Sudeste 0 -- -- 81
2020-08-04 00:00:00 21.8 6 Sudeste 14 Sudeste 0 -- -- 80
2020-08-03 23:00:00 22.6 7 Sudeste 17 Sudeste 0 -- -- 76
2020-08-03 22:00:00 23 10 Sudeste 22 Este 0 -- -- 73
2020-08-03 21:00:00 24.1 13 Sudeste 27 Sudeste 0 -- -- 69
2020-08-03 20:00:00 27.1 14 Sudeste 32 Sudeste 0 -- -- 61
2020-08-03 19:00:00 28.6 15 Sudeste 31 Sur 0 -- -- 58
2020-08-03 18:00:00 29.6 18 Sudeste 33 Sudeste 0 -- -- 55
2020-08-03 17:00:00 29.9 16 Sudeste 35 Sudeste 0 -- -- 53
2020-08-03 16:00:00 30.2 18 Sudeste 35 Sudeste 0 -- -- 51
2020-08-03 15:00:00 30.6 17 Sudeste 33 Este 0 -- -- 49
2020-08-03 14:00:00 30.8 9 Sudoeste 20 Sur 0 -- -- 41
2020-08-03 13:00:00 29.2 8 Sudoeste 20 Sudoeste 0 -- -- 47
2020-08-03 12:00:00 27.2 9 Sudoeste 16 Oeste 0 -- -- 52
2020-08-03 11:00:00 25.5 6 Oeste 18 Sudoeste 0 -- -- 53
2020-08-03 10:00:00 23 8 Sudoeste 26 Noroeste 0 -- -- 56
2020-08-03 09:00:00 21.5 7 Oeste 14 Oeste 0 -- -- 60
2020-08-03 08:00:00 21.8 4 Sudoeste 18 Noroeste 0 -- -- 60
2020-08-03 07:00:00 21.4 7 Noroeste 17 Noroeste 0 -- -- 61
2020-08-03 06:00:00 22.3 7 Oeste 14 Noroeste 0 -- -- 63
2020-08-03 05:00:00 22.4 3 Oeste 8 Sudoeste 0 -- -- 76
2020-08-03 04:00:00 22.2 0 Calma 5 Nordeste 0 -- -- 86
2020-08-03 03:00:00 22.4 0 Calma 4 Este 0 -- -- 91
2020-08-03 02:00:00 22.7 0 Calma 10 Sudeste 0 -- -- 89
2020-08-03 01:00:00 23.6 3 Sur 8 Sudeste 0 -- -- 86
2020-08-03 00:00:00 23.6 5 Sudeste 11 Sudeste 0 -- -- 84
2020-08-02 23:00:00 24.2 5 Sudeste 14 Sudeste 0 -- -- 81
2020-08-02 22:00:00 24.6 9 Sudeste 22 Sudeste 0 -- -- 75
2020-08-02 21:00:00 25.6 13 Sudeste 28 Sudeste 0 -- -- 72
2020-08-02 20:00:00 27.1 14 Sudeste 34 Sudeste 0 -- -- 69
2020-08-02 19:00:00 29.6 19 Sudeste 36 Sudeste 0 -- -- 61
2020-08-02 18:00:00 31 19 Sudeste 37 Sudeste 0 -- -- 56
2020-08-02 17:00:00 31.5 22 Sudeste 42 Sur 0 -- -- 54
2020-08-02 16:00:00 33.2 19 Sudeste 37 Sudeste 0 -- -- 49
2020-08-02 15:00:00 33.7 18 Sudeste 32 Sudeste 0 -- -- 46
2020-08-02 14:00:00 32.9 17 Sudeste 29 Sur 0 -- -- 47
2020-08-02 13:00:00 32.5 8 Sudeste 20 Este 0 -- -- 47
2020-08-02 12:00:00 30 6 Sudeste 17 Sudeste 0 -- -- 51
2020-08-02 11:00:00 28.3 4 Sudeste 14 Sur 0 -- -- 56
2020-08-02 10:00:00 25.8 4 Sudoeste 6 Sur 0 -- -- 54
2020-08-02 09:00:00 23.3 2 Sudoeste 5 Oeste 0 -- -- 52
2020-08-02 08:00:00 20.8 3 Oeste 5 Oeste 0 -- -- 57
2020-08-02 07:00:00 20.1 3 Nordeste 12 Noroeste 0 -- -- 63
2020-08-02 06:00:00 20.7 3 Norte 6 Noroeste 0 -- -- 60
2020-08-02 05:00:00 21.9 3 Norte 8 Oeste 0 -- -- 58
2020-08-02 04:00:00 22.4 4 Noroeste 9 Oeste 0 -- -- 56
2020-08-02 03:00:00 22.6 0 Calma 6 Noroeste 0 -- -- 69
2020-08-02 02:00:00 23.2 2 Oeste 7 Oeste 0 -- -- 69
2020-08-02 01:00:00 24.2 0 Calma 8 Nordeste 0 -- -- 77
2020-08-02 00:00:00 25.1 4 Norte 10 Este 0 -- -- 77
2020-08-01 23:00:00 25.8 5 Sudeste 15 Sudeste 0 -- -- 77
2020-08-01 22:00:00 27.7 5 Sudeste 24 Sudeste 0 -- -- 70
2020-08-01 21:00:00 34.6 7 Sur 19 Noroeste 0 -- -- 35
2020-08-01 20:00:00 39.4 10 Noroeste 34 Oeste 0 -- -- 10
2020-08-01 19:00:00 40.1 15 Noroeste 49 Noroeste 0 -- -- 11
2020-08-01 18:00:00 40.5 22 Oeste 47 Oeste 0 -- -- 11
2020-08-01 17:00:00 40.5 23 Oeste 45 Oeste 0 -- -- 11
2020-08-01 16:00:00 40.3 18 Noroeste 45 Oeste 0 -- -- 13
2020-08-01 15:00:00 40.2 23 Oeste 49 Oeste 0 -- -- 13
2020-08-01 14:00:00 39.7 15 Oeste 40 Noroeste 0 -- -- 18
2020-08-01 13:00:00 38.5 18 Oeste 34 Oeste 0 -- -- 18
2020-08-01 12:00:00 36.9 10 Noroeste 20 Noroeste 0 -- -- 23
2020-08-01 11:00:00 33.8 8 Oeste 19 Noroeste 0 -- -- 30
2020-08-01 10:00:00 30.5 9 Noroeste 17 Noroeste 0 -- -- 35
2020-08-01 09:00:00 26.3 4 Norte 15 Oeste 0 -- -- 48
2020-08-01 08:00:00 23.6 5 Norte 26 Noroeste 0 -- -- 54
2020-08-01 07:00:00 22.8 11 Noroeste 18 Noroeste 0 -- -- 58
2020-08-01 06:00:00 21.7 3 Noroeste 10 Oeste 0 -- -- 64
2020-08-01 05:00:00 22.4 5 Oeste 10 Oeste 0 -- -- 63
2020-08-01 04:00:00 22.1 2 Noroeste 11 Oeste 0 -- -- 65
2020-08-01 03:00:00 22.6 3 Norte 6 Norte 0 -- -- 66
2020-08-01 02:00:00 23.6 6 Norte 16 Noroeste 0 -- -- 66
2020-08-01 01:00:00 23.5 0 Calma 5 Sudoeste 0 -- -- 69
2020-08-01 00:00:00 24.6 0 Calma 5 Norte 0 -- -- 65
2020-07-31 23:00:00 25.7 0 Calma 13 Sudeste 0 -- -- 64
2020-07-31 22:00:00 26.7 9 Sudeste 23 Sudeste 0 -- -- 63
2020-07-31 21:00:00 29.4 13 Sudeste 26 Sudeste 0 -- -- 55
2020-07-31 20:00:00 33.1 15 Sudeste 26 Sudeste 0 -- -- 42
2020-07-31 19:00:00 35.8 13 Sudeste 29 Sudeste 0 -- -- 36
2020-07-31 18:00:00 36.3 15 Sudeste 30 Sudeste 0 -- -- 36
2020-07-31 17:00:00 36.9 16 Sudeste 32 Sur 0 -- -- 35
2020-07-31 16:00:00 38.1 15 Sudeste 27 Sudeste 0 -- -- 29
2020-07-31 15:00:00 37.8 13 Sur 21 Sudeste 0 -- -- 27
2020-07-31 14:00:00 37.3 12 Sudeste 22 Sudeste 0 -- -- 28
2020-07-31 13:00:00 36.1 9 Sudeste 18 Sudeste 0 -- -- 29
2020-07-31 12:00:00 33.8 8 Sur 15 Sudeste 0 -- -- 30
2020-07-31 11:00:00 31.7 4 Sudeste 8 Sudoeste 0 -- -- 36
2020-07-31 10:00:00 27.2 5 Sudoeste 9 Oeste 0 -- -- 46
2020-07-31 09:00:00 23.7 5 Oeste 11 Noroeste 0 -- -- 55
2020-07-31 08:00:00 20.9 2 Oeste 6 Oeste 0 -- -- 64
2020-07-31 07:00:00 20.3 0 Calma 6 Oeste 0 -- -- 66
2020-07-31 06:00:00 21.3 4 Oeste 9 Oeste 0 -- -- 63
2020-07-31 05:00:00 23.7 5 Oeste 15 Nordeste 0 -- -- 55
2020-07-31 04:00:00 24.8 8 Sudeste 28 Nordeste 0 -- -- 52
2020-07-31 03:00:00 26.3 6 Este 40 Norte 0 -- -- 43
2020-07-31 02:00:00 29.8 21 Norte 42 Noroeste 0.2 -- -- 33
2020-07-31 01:00:00 25.5 9 Nordeste 31 Oeste 0 -- -- 55
2020-07-31 00:00:00 26.3 15 Sudeste 34 Este 0.2 -- -- 52
2020-07-30 23:00:00 26.1 6 Noroeste 24 Nordeste 0 -- -- 48
2020-07-30 22:00:00 27.8 15 Sur 46 Norte 0 -- -- 43
2020-07-30 21:00:00 26.2 22 Noroeste 43 Oeste 0 -- -- 54
2020-07-30 20:00:00 29.7 15 Sudeste 26 Este 0 -- -- 35
2020-07-30 19:00:00 32.9 17 Sudeste 32 Este 0 -- -- 34
2020-07-30 18:00:00 34.2 18 Sudeste 33 Sudeste 0 -- -- 33
2020-07-30 17:00:00 34.4 19 Sudeste 33 Sudeste 0 -- -- 32
2020-07-30 16:00:00 34.5 16 Sudeste 33 Sudeste 0 -- -- 34
2020-07-30 15:00:00 34.2 16 Sudeste 35 Sudeste 0 -- -- 34
2020-07-30 14:00:00 33.2 18 Sudeste 32 Sur 0 -- -- 36
2020-07-30 13:00:00 32.7 13 Sudeste 25 Sudeste 0 -- -- 34
2020-07-30 12:00:00 30.9 13 Sudeste 25 Sudeste 0 -- -- 37
2020-07-30 11:00:00 28.8 8 Sudeste 13 Sudoeste 0 -- -- 41
2020-07-30 10:00:00 25.6 3 Oeste 6 Sur 0 -- -- 49
2020-07-30 09:00:00 22.2 5 Oeste 8 Sudoeste 0 -- -- 61
2020-07-30 08:00:00 19.4 4 Oeste 10 Oeste 0 -- -- 69
2020-07-30 07:00:00 18.4 3 Noroeste 8 Noroeste 0 -- -- 78
2020-07-30 06:00:00 18.9 2 Noroeste 6 Nordeste 0 -- -- 84
2020-07-30 05:00:00 18.8 3 Nordeste 5 Noroeste 0 -- -- 85
2020-07-30 04:00:00 19.8 0 Calma 6 Nordeste 0 -- -- 87
2020-07-30 03:00:00 20.3 4 Nordeste 6 Nordeste 0 -- -- 84
2020-07-30 02:00:00 21.2 4 Nordeste 6 Nordeste 0 -- -- 85
2020-07-30 01:00:00 22.4 3 Noroeste 9 Sudoeste 0 -- -- 86
2020-07-30 00:00:00 23.3 4 Sudeste 13 Este 0 -- -- 82
2020-07-29 23:00:00 23.9 7 Este 15 Sudeste 0 -- -- 73
2020-07-29 22:00:00 25.2 10 Sudeste 23 Sudeste 0 -- -- 69
2020-07-29 21:00:00 27 13 Sudeste 26 Sudeste 0 -- -- 58
2020-07-29 20:00:00 29.9 14 Sudeste 30 Sudeste 0 -- -- 45
2020-07-29 19:00:00 31.1 17 Sudeste 33 Sudeste 0 -- -- 44
2020-07-29 18:00:00 31.5 18 Sudeste 39 Sudeste 0 -- -- 42
2020-07-29 17:00:00 32.3 21 Sudeste 37 Sudeste 0 -- -- 40
2020-07-29 16:00:00 32.5 20 Sudeste 35 Sur 0 -- -- 41
2020-07-29 15:00:00 32.1 16 Sur 43 Sur 0 -- -- 42
2020-07-29 14:00:00 30.9 18 Sur 33 Sudeste 0 -- -- 45
2020-07-29 13:00:00 30.1 19 Sudeste 33 Sudeste 0 -- -- 46
2020-07-29 12:00:00 29.4 17 Sudeste 30 Sudeste 0 -- -- 41
2020-07-29 11:00:00 27.4 9 Sudeste 18 Sur 0 -- -- 51
2020-07-29 10:00:00 25.5 6 Sudeste 12 Este 0 -- -- 54
2020-07-29 09:00:00 22.9 0 Calma 5 Sudeste 0 -- -- 55
2020-07-29 08:00:00 19.3 0 Calma 4 Oeste 0 -- -- 66
2020-07-29 07:00:00 18.6 0 Calma 6 Sudoeste 0 -- -- 71
2020-07-29 06:00:00 19.1 0 Calma 7 Oeste 0 -- -- 72
2020-07-29 05:00:00 19.3 3 Nordeste 6 Nordeste 0 -- -- 71
2020-07-29 04:00:00 20 3 Norte 7 Norte 0 -- -- 70
2020-07-29 03:00:00 20.6 4 Norte 7 Nordeste 0 -- -- 72
2020-07-29 02:00:00 21.2 0 Calma 7 Nordeste 0 -- -- 70
2020-07-29 01:00:00 22.1 2 Nordeste 6 Nordeste 0 -- -- 66
2020-07-29 00:00:00 23.4 3 Norte 8 Nordeste 0 -- -- 62
2020-07-28 23:00:00 24.4 4 Este 10 Sudeste 0 -- -- 59
2020-07-28 22:00:00 25.5 7 Sudeste 21 Sudeste 0 -- -- 56
2020-07-28 21:00:00 27.4 12 Sudeste 27 Sudeste 0 -- -- 49
2020-07-28 20:00:00 30.3 15 Sudeste 32 Sudeste 0 -- -- 43
2020-07-28 19:00:00 32.2 17 Sudeste 34 Sudeste 0 -- -- 35
2020-07-28 18:00:00 33.8 16 Sudeste 35 Sudeste 0 -- -- 33
2020-07-28 17:00:00 33.9 19 Sudeste 40 Sur 0 -- -- 33
2020-07-28 16:00:00 34.4 19 Sudeste 35 Sudeste 0 -- -- 31
2020-07-28 15:00:00 34.2 18 Sudeste 35 Sudeste 0 -- -- 36
2020-07-28 14:00:00 33.7 15 Sudeste 32 Sudeste 0 -- -- 38
2020-07-28 13:00:00 32.3 13 Sur 30 Sudeste 0 -- -- 36
2020-07-28 12:00:00 31.4 15 Sudeste 26 Sudeste 0 -- -- 34
2020-07-28 11:00:00 30.6 11 Sudeste 20 Sudeste 0 -- -- 34
2020-07-28 10:00:00 28 4 Sudeste 7 Sur 0 -- -- 40
2020-07-28 09:00:00 24.2 3 Oeste 6 Oeste 0 -- -- 46
2020-07-28 08:00:00 21.4 4 Oeste 9 Oeste 0 -- -- 55
2020-07-28 07:00:00 20.3 6 Noroeste 9 Oeste 0 -- -- 59
2020-07-28 06:00:00 20.9 3 Noroeste 8 Oeste 0 -- -- 59
2020-07-28 05:00:00 20.5 3 Noroeste 6 Norte 0 -- -- 62
2020-07-28 04:00:00 21 3 Noroeste 8 Noroeste 0 -- -- 63
2020-07-28 03:00:00 21.4 2 Noroeste 5 Norte 0 -- -- 62
2020-07-28 02:00:00 22.7 3 Oeste 7 Nordeste 0 -- -- 58
2020-07-28 01:00:00 23.5 4 Norte 9 Nordeste 0 -- -- 56
2020-07-28 00:00:00 24.8 2 Oeste 9 Sudeste 0 -- -- 53
2020-07-27 23:00:00 26 5 Este 11 Este 0 -- -- 50
2020-07-27 22:00:00 26.8 4 Este 16 Sudeste 0 -- -- 52
2020-07-27 21:00:00 28.8 9 Sudeste 25 Sudeste 0 -- -- 46
2020-07-27 20:00:00 31.6 14 Sudeste 28 Sudeste 0 -- -- 41
2020-07-27 19:00:00 33.6 15 Sudeste 29 Sudeste 0 -- -- 38
2020-07-27 18:00:00 35.3 14 Sudeste 34 Sudeste 0 -- -- 36
2020-07-27 17:00:00 35.7 17 Sudeste 31 Sudeste 0 -- -- 36
2020-07-27 16:00:00 36 17 Sudeste 30 Sudeste 0 -- -- 34
2020-07-27 15:00:00 36 14 Sudeste 30 Sudeste 0 -- -- 32
2020-07-27 14:00:00 35.4 14 Sudeste 27 Sudeste 0 -- -- 31
2020-07-27 13:00:00 34.3 10 Sur 18 Este 0 -- -- 32
2020-07-27 12:00:00 33.1 6 Sudeste 13 Sur 0 -- -- 34
2020-07-27 09:00:00 22.7 2 Sudeste 9 Oeste 0 -- -- 61
2020-07-27 08:00:00 19.2 2 Oeste 5 Noroeste 0 -- -- 77
2020-07-27 07:00:00 18 0 Calma 5 Noroeste 0 -- -- 84
2020-07-27 06:00:00 18 0 Calma 5 Norte 0 -- -- 83
2020-07-27 05:00:00 18.6 0 Calma 5 Nordeste 0 -- -- 85
2020-07-27 04:00:00 19.1 2 Nordeste 5 Oeste 0 -- -- 85
2020-07-27 03:00:00 19.7 0 Calma 4 Nordeste 0 -- -- 84
2020-07-27 02:00:00 20.4 0 Calma 6 Nordeste 0 -- -- 81
2020-07-27 01:00:00 21.4 4 Nordeste 6 Nordeste 0 -- -- 77
2020-07-27 00:00:00 22.2 2 Este 5 Este 0 -- -- 74
2020-07-26 23:00:00 23 3 Sudeste 13 Sudeste 0 -- -- 71
2020-07-26 22:00:00 24.2 9 Sudeste 24 Este 0 -- -- 65
2020-07-26 21:00:00 26.2 14 Sudeste 31 Sur 0 -- -- 59
2020-07-26 20:00:00 28.7 16 Sudeste 31 Sudeste 0 -- -- 54
2020-07-26 19:00:00 30.4 17 Sudeste 36 Sur 0 -- -- 51
2020-07-26 18:00:00 31.4 20 Sudeste 35 Sudeste 0 -- -- 50
2020-07-26 17:00:00 32.8 18 Sudeste 35 Sudeste 0 -- -- 46
2020-07-26 16:00:00 33.7 17 Sudeste 34 Sudeste 0 -- -- 44
2020-07-26 15:00:00 33.8 17 Sudeste 32 Sudeste 0 -- -- 40
2020-07-26 14:00:00 33.1 15 Sudeste 30 Sur 0 -- -- 38
2020-07-26 13:00:00 31.9 14 Sur 29 Sudeste 0 -- -- 39
2020-07-26 12:00:00 30.5 8 Sur 14 Sudeste 0 -- -- 39
2020-07-26 11:00:00 27.9 6 Sur 12 Sur 0 -- -- 45
2020-07-26 10:00:00 25.2 3 Sudoeste 7 Sudoeste 0 -- -- 52
2020-07-26 09:00:00 22.1 0 Calma 8 Oeste 0 -- -- 68
2020-07-26 08:00:00 19.1 3 Noroeste 6 Oeste 0 -- -- 78
2020-07-26 07:00:00 18.1 2 Norte 5 Oeste 0 -- -- 82
2020-07-26 06:00:00 18.6 5 Nordeste 8 Oeste 0 -- -- 79
2020-07-26 05:00:00 19 3 Norte 4 Nordeste 0 -- -- 78
2020-07-26 04:00:00 19.5 2 Noroeste 6 Oeste 0 -- -- 75
2020-07-26 03:00:00 19.6 0 Calma 4 Este 0 -- -- 75
2020-07-26 02:00:00 20.6 0 Calma 5 Norte 0 -- -- 70
2020-07-26 01:00:00 21 3 Norte 5 Nordeste 0 -- -- 68
2020-07-26 00:00:00 22.1 0 Calma 8 Este 0 -- -- 66
2020-07-25 23:00:00 23 4 Sudeste 15 Sudeste 0 -- -- 61
2020-07-25 22:00:00 24.2 9 Sudeste 21 Sudeste 0 -- -- 60
2020-07-25 21:00:00 25.9 14 Sudeste 25 Sudeste 0 -- -- 64
2020-07-25 20:00:00 28.3 14 Sudeste 27 Sudeste 0 -- -- 58
2020-07-25 19:00:00 30.4 15 Sudeste 33 Sudeste 0 -- -- 52
2020-07-25 18:00:00 31.9 16 Sudeste 36 Sudeste 0 -- -- 46
2020-07-25 17:00:00 32.4 17 Sudeste 39 Sudeste 0 -- -- 44
2020-07-25 16:00:00 32.8 15 Sudeste 26 Sur 0 -- -- 42
2020-07-25 15:00:00 32.3 15 Sudeste 27 Sudeste 0 -- -- 42
2020-07-25 14:00:00 30.4 13 Sur 28 Sudeste 0 -- -- 45
2020-07-25 13:00:00 29.6 13 Sudeste 25 Sudeste 0 -- -- 41
2020-07-25 12:00:00 28.4 11 Sur 23 Sudeste 0 -- -- 38
2020-07-25 11:00:00 26.3 7 Sur 13 Sur 0 -- -- 42
2020-07-25 10:00:00 24.4 4 Sur 6 Sudeste 0 -- -- 46
2020-07-25 09:00:00 21 4 Oeste 6 Oeste 0 -- -- 58
2020-07-25 08:00:00 18.8 0 Calma 5 Noroeste 0 -- -- 62
2020-07-25 07:00:00 17.5 3 Nordeste 5 Nordeste 0 -- -- 66
2020-07-25 06:00:00 17.8 3 Norte 6 Nordeste 0 -- -- 66
2020-07-25 05:00:00 18.3 0 Calma 4 Nordeste 0 -- -- 67
2020-07-25 04:00:00 18.6 0 Calma 6 Nordeste 0 -- -- 68
2020-07-25 03:00:00 19.3 0 Calma 5 Oeste 0 -- -- 67
2020-07-25 02:00:00 20.1 0 Calma 6 Nordeste 0 -- -- 63
2020-07-25 01:00:00 20.9 3 Norte 9 Nordeste 0 -- -- 61
2020-07-25 00:00:00 21.8 5 Este 9 Sudeste 0 -- -- 58
2020-07-24 23:00:00 22.7 5 Este 14 Sudeste 0 -- -- 54
2020-07-24 22:00:00 23.7 9 Sudeste 17 Sudeste 0 -- -- 55
2020-07-24 21:00:00 25.9 11 Sudeste 21 Sudeste 0 -- -- 52
2020-07-24 20:00:00 26.7 16 Sudeste 32 Sudeste 0 -- -- 55
2020-07-24 19:00:00 28.2 19 Sudeste 34 Sudeste 0 -- -- 46
2020-07-24 18:00:00 31.1 18 Sudeste 39 Sudeste 0 -- -- 37
2020-07-24 17:00:00 32.4 19 Sudeste 36 Sudeste 0 -- -- 38
2020-07-24 16:00:00 32.8 17 Sudeste 38 Sudeste 0 -- -- 37
2020-07-24 15:00:00 32.6 17 Sudeste 30 Sudeste 0 -- -- 33
2020-07-24 14:00:00 32.3 12 Sudeste 28 Sudeste 0 -- -- 26
2020-07-24 13:00:00 31.2 15 Sur 27 Sudeste 0 -- -- 25
2020-07-24 12:00:00 30.3 12 Sur 23 Sur 0 -- -- 26
2020-07-24 11:00:00 28.8 10 Sudeste 17 Sur 0 -- -- 29
2020-07-24 10:00:00 26.6 2 Sudeste 5 Oeste 0 -- -- 25
2020-07-24 09:00:00 22.1 3 Oeste 8 Oeste 0 -- -- 34
2020-07-24 08:00:00 19.5 7 Oeste 10 Oeste 0 -- -- 37
2020-07-24 07:00:00 18.4 3 Noroeste 9 Oeste 0 -- -- 40
2020-07-24 06:00:00 18.5 3 Noroeste 5 Noroeste 0 -- -- 47
2020-07-24 05:00:00 18.8 6 Nordeste 11 Nordeste 0 -- -- 46
2020-07-24 04:00:00 19 3 Noroeste 8 Nordeste 0 -- -- 52
2020-07-24 03:00:00 19.5 0 Calma 6 Nordeste 0 -- -- 52
2020-07-24 02:00:00 20.5 0 Calma 10 Nordeste 0 -- -- 54
2020-07-24 01:00:00 21.8 0 Calma 0 Calma 0 -- -- 50
2020-07-24 00:00:00 23.2 0 Calma 6 Sudeste 0 -- -- 49
2020-07-23 23:00:00 24.5 6 Sudeste 10 Sudeste 0 -- -- 46
2020-07-23 22:00:00 25.6 6 Sudeste 20 Este 0 -- -- 43
2020-07-23 21:00:00 27.9 11 Sudeste 30 Sudeste 0 -- -- 36
2020-07-23 20:00:00 31.1 14 Sudeste 32 Sur 0 -- -- 27
2020-07-23 19:00:00 32.5 18 Sudeste 36 Sudeste 0 -- -- 27
2020-07-23 18:00:00 33.7 19 Sudeste 33 Sudeste 0 -- -- 28
2020-07-23 17:00:00 34.3 19 Sudeste 33 Sudeste 0 -- -- 25
2020-07-23 16:00:00 34.7 15 Sudeste 31 Sudeste 0 -- -- 23
2020-07-23 15:00:00 33.9 15 Sudeste 30 Sudeste 0 -- -- 24
2020-07-23 14:00:00 32.8 14 Sur 26 Sur 0 -- -- 24
2020-07-23 13:00:00 32.7 10 Sudeste 22 Sudeste 0 -- -- 25
2020-07-23 12:00:00 30.8 7 Sur 13 Sur 0 -- -- 25
2020-07-23 11:00:00 28 3 Sur 7 Sur 0 -- -- 31
2020-07-23 10:00:00 24.7 2 Norte 15 Noroeste 0 -- -- 39
2020-07-23 09:00:00 20.7 6 Noroeste 13 Noroeste 0 -- -- 46
2020-07-23 08:00:00 18.1 6 Noroeste 17 Noroeste 0 -- -- 50
2020-07-23 07:00:00 16.6 2 Noroeste 15 Oeste 0 -- -- 54
2020-07-23 06:00:00 16.2 4 Noroeste 8 Noroeste 0 -- -- 53
2020-07-23 05:00:00 16.4 0 Calma 8 Oeste 0 -- -- 53
2020-07-23 04:00:00 17.2 4 Noroeste 8 Norte 0 -- -- 51
2020-07-23 03:00:00 16.6 3 Norte 5 Noroeste 0 -- -- 59
2020-07-23 02:00:00 17.4 4 Nordeste 8 Nordeste 0 -- -- 54
2020-07-23 01:00:00 18.4 0 Calma 6 Norte 0 -- -- 58
2020-07-23 00:00:00 19.1 3 Norte 6 Nordeste 0 -- -- 60
2020-07-22 23:00:00 20.8 4 Nordeste 8 Nordeste 0 -- -- 55
2020-07-22 22:00:00 22.4 6 Norte 12 Sudeste 0 -- -- 52
2020-07-22 21:00:00 26.4 6 Sudeste 24 Sudeste 0 -- -- 41
2020-07-22 20:00:00 28.1 14 Sudeste 29 Sudeste 0 -- -- 35
2020-07-22 19:00:00 27.5 11 Sudeste 27 Sudeste 0 -- -- 41
2020-07-22 18:00:00 28.3 14 Sudeste 28 Sudeste 0 -- -- 42
2020-07-22 17:00:00 27.7 13 Sudeste 33 Sudeste 0 -- -- 44
2020-07-22 16:00:00 27.3 19 Sudeste 42 Sudeste 0 -- -- 46
2020-07-22 15:00:00 26.9 17 Sudeste 40 Sudeste 0.2 -- -- 46
2020-07-22 14:00:00 26.4 13 Sur 37 Sudeste 0 -- -- 47
2020-07-22 13:00:00 25.5 4 Oeste 10 Oeste 0.2 -- -- 54
2020-07-22 12:00:00 22.8 4 Sur 10 Este 0 -- -- 70
2020-07-22 11:00:00 23.1 3 Oeste 11 Oeste 0.4 -- -- 63
2020-07-22 10:00:00 19.5 10 Noroeste 21 Noroeste 0 -- -- 76
2020-07-22 09:00:00 18.1 9 Nordeste 20 Este 1 -- -- 82
2020-07-22 08:00:00 18.9 2 Oeste 5 Sudoeste 0.2 -- -- 79
2020-07-22 07:00:00 17.1 0 Calma 6 Nordeste 0 -- -- 75
2020-07-22 06:00:00 17.3 0 Calma 6 Nordeste 0 -- -- 80
2020-07-22 05:00:00 18 6 Nordeste 8 Norte 0 -- -- 71
2020-07-22 04:00:00 19.6 9 Nordeste 18 Nordeste 0 -- -- 62
2020-07-22 03:00:00 19.4 4 Noroeste 8 Nordeste 0 -- -- 78
2020-07-22 02:00:00 19.9 3 Nordeste 7 Nordeste 0 -- -- 73
2020-07-22 01:00:00 20.9 3 Nordeste 8 Este 0 -- -- 73
2020-07-22 00:00:00 21.8 6 Este 11 Sudeste 0 -- -- 70
2020-07-21 23:00:00 23 6 Sudeste 13 Este 0 -- -- 59
2020-07-21 22:00:00 23.6 8 Sudeste 13 Sudeste 0 -- -- 57
2020-07-21 21:00:00 25.3 9 Sudeste 26 Sudeste 0 -- -- 49
2020-07-21 20:00:00 28.1 14 Sudeste 32 Sudeste 0 -- -- 40
2020-07-21 19:00:00 29 18 Sudeste 37 Sur 0 -- -- 39
2020-07-21 18:00:00 30 21 Sudeste 38 Sudeste 0 -- -- 34
2020-07-21 17:00:00 31.8 17 Sudeste 34 Sur 0 -- -- 33
2020-07-21 16:00:00 31.6 18 Sudeste 36 Sudeste 0 -- -- 36
2020-07-21 15:00:00 30.8 18 Sudeste 36 Sudeste 0 -- -- 43
2020-07-21 14:00:00 30.8 19 Sudeste 36 Sudeste 0 -- -- 42
2020-07-21 13:00:00 30 14 Sur 28 Sur 0 -- -- 44
2020-07-21 12:00:00 28.6 12 Sur 20 Sudeste 0 -- -- 48
2020-07-21 11:00:00 25.6 7 Sur 13 Sur 0 -- -- 56
2020-07-21 10:00:00 23.8 2 Oeste 6 Oeste 0 -- -- 57
2020-07-21 09:00:00 20.9 2 Sur 5 Sudoeste 0 -- -- 71
2020-07-21 08:00:00 18.1 2 Nordeste 8 Noroeste 0 -- -- 82
2020-07-21 07:00:00 16.9 3 Nordeste 8 Nordeste 0 -- -- 84
2020-07-21 06:00:00 17.7 2 Norte 8 Nordeste 0 -- -- 88
2020-07-21 05:00:00 17.9 6 Nordeste 9 Nordeste 0 -- -- 87
2020-07-21 04:00:00 18.9 4 Nordeste 8 Nordeste 0 -- -- 85
2020-07-21 03:00:00 19.6 2 Nordeste 6 Nordeste 0 -- -- 84
2020-07-21 02:00:00 20.1 4 Nordeste 8 Nordeste 0 -- -- 81
2020-07-21 01:00:00 20.2 5 Nordeste 7 Nordeste 0 -- -- 81
2020-07-21 00:00:00 21 4 Este 15 Sudeste 0 -- -- 81
2020-07-20 23:00:00 22.3 8 Sudeste 20 Sudeste 0 -- -- 72
2020-07-20 22:00:00 22.8 10 Sudeste 25 Sudeste 0 -- -- 67
2020-07-20 21:00:00 23.9 14 Sudeste 27 Sudeste 0 -- -- 75
2020-07-20 20:00:00 25.4 18 Sudeste 38 Sudeste 0 -- -- 71
2020-07-20 19:00:00 27.3 21 Sudeste 36 Sudeste 0 -- -- 66
2020-07-20 18:00:00 29.5 16 Sudeste 34 Sudeste 0 -- -- 60
2020-07-20 17:00:00 30.8 13 Sudeste 34 Sudeste 0 -- -- 54
2020-07-20 16:00:00 30.7 18 Sudeste 38 Sudeste 0 -- -- 53
2020-07-20 15:00:00 31.5 17 Sudeste 34 Sudeste 0 -- -- 50
2020-07-20 14:00:00 31.5 17 Sudeste 31 Sur 0 -- -- 49
2020-07-20 13:00:00 29.5 4 Sur 10 Este 0 -- -- 53
2020-07-20 12:00:00 25.6 6 Sudeste 11 Sur 0 -- -- 68
2020-07-20 11:00:00 24.4 5 Sudeste 9 Sudoeste 0 -- -- 75
2020-07-20 10:00:00 22.9 4 Sudoeste 8 Sudoeste 0 -- -- 80
2020-07-20 09:00:00 21.5 3 Oeste 6 Noroeste 0 -- -- 87
2020-07-20 08:00:00 21 2 Oeste 5 Sur 0 -- -- 89
2020-07-20 07:00:00 20.7 0 Calma 6 Sudeste 0 -- -- 90
2020-07-20 06:00:00 20.7 5 Sudeste 9 Sudeste 0 -- -- 85
2020-07-20 05:00:00 21.5 0 Calma 4 Este 0 -- -- 79
2020-07-20 04:00:00 21.4 0 Calma 7 Nordeste 0 -- -- 82
2020-07-20 03:00:00 21.4 4 Este 7 Este 0 -- -- 83
2020-07-20 02:00:00 21.9 3 Sudeste 9 Nordeste 0 -- -- 82
2020-07-20 01:00:00 21.8 5 Norte 9 Noroeste 0 -- -- 83
2020-07-20 00:00:00 22.1 0 Calma 5 Sur 0 -- -- 82
2020-07-19 23:00:00 22.5 5 Sudeste 14 Sudeste 0 -- -- 81
2020-07-19 22:00:00 23.3 8 Este 22 Sudeste 0 -- -- 77
2020-07-19 21:00:00 24.3 14 Sudeste 27 Sudeste 0 -- -- 73
2020-07-19 20:00:00 26.7 14 Sudeste 35 Sudeste 0 -- -- 62
2020-07-19 19:00:00 29.3 19 Sudeste 38 Sudeste 0 -- -- 54
2020-07-19 18:00:00 31.1 22 Sudeste 38 Sudeste 0 -- -- 52
2020-07-19 17:00:00 31.9 21 Sudeste 40 Sudeste 0 -- -- 52
2020-07-19 16:00:00 33.2 21 Sudeste 35 Sudeste 0 -- -- 45
2020-07-19 15:00:00 33.1 15 Sudeste 28 Sudeste 0 -- -- 44
2020-07-19 14:00:00 31.9 12 Sudeste 23 Sur 0 -- -- 43
2020-07-19 13:00:00 31.5 9 Sur 18 Sudeste 0 -- -- 41
2020-07-19 12:00:00 29.8 8 Sur 18 Sudeste 0 -- -- 42
2020-07-19 11:00:00 27.2 5 Sur 11 Sur 0 -- -- 49
2020-07-19 10:00:00 25.1 3 Sur 5 Sudoeste 0 -- -- 51
2020-07-19 09:00:00 21.6 0 Calma 5 Sudoeste 0 -- -- 64
2020-07-19 08:00:00 19 0 Calma 4 Noroeste 0 -- -- 79
2020-07-19 07:00:00 17.3 3 Noroeste 5 Oeste 0 -- -- 86
2020-07-19 06:00:00 17.7 2 Norte 7 Nordeste 0 -- -- 88
2020-07-19 05:00:00 18 0 Calma 5 Nordeste 0 -- -- 87
2020-07-19 04:00:00 18.6 0 Calma 5 Nordeste 0 -- -- 89
2020-07-19 03:00:00 19.3 0 Calma 6 Nordeste 0 -- -- 88
2020-07-19 02:00:00 19.9 3 Norte 5 Nordeste 0 -- -- 87
2020-07-19 01:00:00 20.7 0 Calma 5 Sudeste 0 -- -- 87
2020-07-19 00:00:00 21.4 4 Sudeste 12 Sur 0 -- -- 83
2020-07-18 23:00:00 22.5 7 Sudeste 14 Sudeste 0 -- -- 78
2020-07-18 22:00:00 23.5 10 Este 26 Sudeste 0 -- -- 72
2020-07-18 21:00:00 25.4 13 Sudeste 27 Sudeste 0 -- -- 66
2020-07-18 20:00:00 27.7 15 Sudeste 32 Sudeste 0 -- -- 59
2020-07-18 19:00:00 29.5 14 Sudeste 32 Sudeste 0 -- -- 56
2020-07-18 18:00:00 30.1 18 Sudeste 32 Sudeste 0 -- -- 54
2020-07-18 17:00:00 31.1 18 Sudeste 32 Sudeste 0 -- -- 49
2020-07-18 16:00:00 31.5 14 Sudeste 25 Sur 0 -- -- 46
2020-07-18 15:00:00 30.4 14 Sudeste 26 Sur 0 -- -- 49
2020-07-18 14:00:00 29.4 10 Sur 22 Sudoeste 0 -- -- 50
2020-07-18 13:00:00 28.4 8 Sudeste 20 Sur 0 -- -- 51
2020-07-18 12:00:00 26.8 8 Sudeste 18 Sur 0 -- -- 54
2020-07-18 11:00:00 24.3 5 Sudoeste 14 Sur 0 -- -- 62
2020-07-18 10:00:00 22.9 4 Este 8 Nordeste 0 -- -- 68
2020-07-18 09:00:00 19.2 3 Noroeste 5 Noroeste 0 -- -- 81
2020-07-18 08:00:00 17.6 0 Calma 5 Oeste 0 -- -- 86
2020-07-18 07:00:00 16.4 4 Norte 6 Nordeste 0 -- -- 90
2020-07-18 06:00:00 16.8 0 Calma 6 Nordeste 0 -- -- 89
2020-07-18 05:00:00 17.4 4 Nordeste 5 Norte 0 -- -- 87
2020-07-18 04:00:00 18 0 Calma 6 Nordeste 0 -- -- 86
2020-07-18 03:00:00 19 3 Este 6 Nordeste 0 -- -- 83
2020-07-18 02:00:00 19.3 3 Nordeste 7 Este 0 -- -- 84
2020-07-18 01:00:00 19.3 5 Nordeste 8 Este 0 -- -- 84
2020-07-18 00:00:00 20.5 5 Sudeste 11 Sudeste 0 -- -- 83
2020-07-17 23:00:00 21.4 6 Sudeste 14 Este 0 -- -- 77
2020-07-17 22:00:00 22.5 9 Este 21 Sudeste 0 -- -- 70
2020-07-17 21:00:00 24.3 12 Sudeste 27 Sudeste 0 -- -- 62
2020-07-17 20:00:00 26.1 14 Sudeste 28 Sur 0 -- -- 59
2020-07-17 19:00:00 27.2 17 Sudeste 32 Sur 0 -- -- 55
2020-07-17 18:00:00 27.9 17 Sudeste 31 Sur 0 -- -- 56
2020-07-17 17:00:00 27.2 15 Sudeste 30 Sudeste 0 -- -- 59
2020-07-17 16:00:00 24.9 15 Este 26 Sudeste 0 -- -- 66
2020-07-17 15:00:00 27.9 15 Sudeste 30 Sudeste 0 -- -- 55
2020-07-17 14:00:00 28.8 14 Sur 29 Sudeste 0 -- -- 52
2020-07-17 13:00:00 28.2 14 Sudeste 27 Sur 0 -- -- 54
2020-07-17 12:00:00 26.4 13 Sur 26 Sudeste 0 -- -- 57
2020-07-17 11:00:00 25 11 Sur 19 Sur 0 -- -- 65
2020-07-17 10:00:00 24.3 5 Sudeste 11 Sudeste 0 -- -- 66
2020-07-17 09:00:00 21 3 Oeste 5 Sudoeste 0 -- -- 78
2020-07-17 08:00:00 19.4 0 Calma 3 Sudoeste 0 -- -- 86
2020-07-17 07:00:00 17.9 2 Oeste 6 Oeste 0 -- -- 90
2020-07-17 06:00:00 18.3 0 Calma 7 Norte 0 -- -- 89
2020-07-17 05:00:00 18.4 0 Calma 5 Oeste 0 -- -- 88
2020-07-17 04:00:00 18.6 0 Calma 5 Sudoeste 0 -- -- 88
2020-07-17 03:00:00 19.3 0 Calma 5 Norte 0 -- -- 86
2020-07-17 02:00:00 19.9 0 Calma 4 Oeste 0 -- -- 85
2020-07-17 01:00:00 20.5 0 Calma 9 Sudeste 0 -- -- 82
2020-07-17 00:00:00 21.5 6 Sudeste 12 Sudeste 0 -- -- 75
2020-07-16 23:00:00 21.9 6 Sudeste 16 Este 0 -- -- 74
2020-07-16 22:00:00 22.4 9 Sudeste 27 Sudeste 0 -- -- 73
2020-07-16 21:00:00 24.2 12 Sudeste 24 Sudeste 0 -- -- 68
2020-07-16 20:00:00 26.4 14 Sudeste 30 Sudeste 0 -- -- 63
2020-07-16 19:00:00 28 15 Este 34 Sudeste 0 -- -- 57
2020-07-16 18:00:00 28.8 18 Sudeste 32 Sudeste 0 -- -- 55
2020-07-16 17:00:00 29.5 20 Sudeste 36 Sudeste 0 -- -- 51
2020-07-16 16:00:00 30.5 17 Sudeste 30 Sudeste 0 -- -- 47
2020-07-16 15:00:00 30.1 14 Sudeste 24 Sudeste 0 -- -- 46
2020-07-16 14:00:00 29.1 10 Sudeste 23 Sudeste 0 -- -- 49
2020-07-16 13:00:00 28.6 8 Sur 24 Sudeste 0 -- -- 49
2020-07-16 12:00:00 26.6 7 Sur 17 Sudeste 0 -- -- 52
2020-07-16 11:00:00 24.8 9 Sudeste 17 Sur 0 -- -- 58
2020-07-16 10:00:00 23.9 5 Sudeste 11 Sur 0 -- -- 60
2020-07-16 09:00:00 21.5 2 Sudeste 5 Sudeste 0 -- -- 65
2020-07-16 08:00:00 19.5 0 Calma 4 Este 0 -- -- 79
2020-07-16 07:00:00 18 3 Noroeste 8 Oeste 0 -- -- 81
2020-07-16 06:00:00 18.8 4 Noroeste 6 Oeste 0 -- -- 80
2020-07-16 05:00:00 19.5 0 Calma 6 Oeste 0 -- -- 80
2020-07-16 04:00:00 20.1 0 Calma 5 Sudoeste 0 -- -- 78
2020-07-16 03:00:00 20.4 2 Noroeste 5 Oeste 0 -- -- 76
2020-07-16 02:00:00 21.1 0 Calma 4 Sur 0 -- -- 73
2020-07-16 01:00:00 21.3 0 Calma 6 Sudeste 0 -- -- 71
2020-07-16 00:00:00 21.4 3 Sudeste 16 Sudeste 0 -- -- 70
2020-07-15 23:00:00 21.9 7 Sudeste 21 Sudeste 0 -- -- 69
2020-07-15 22:00:00 22.9 11 Sudeste 24 Sudeste 0 -- -- 68
2020-07-15 21:00:00 24.2 14 Sudeste 28 Sudeste 0 -- -- 68
2020-07-15 20:00:00 26.1 14 Sudeste 28 Sur 0 -- -- 63
2020-07-15 19:00:00 28.4 14 Sudeste 26 Sur 0 -- -- 56
2020-07-15 18:00:00 27.8 13 Sudeste 29 Sudeste 0 -- -- 53
2020-07-15 17:00:00 30.2 15 Sudeste 30 Sudeste 0 -- -- 47
2020-07-15 16:00:00 29.9 10 Sudeste 22 Sudeste 0 -- -- 45
2020-07-15 15:00:00 29.2 9 Sudeste 23 Sur 0 -- -- 46
2020-07-15 14:00:00 28.4 7 Sudeste 24 Sur 0 -- -- 48
2020-07-15 13:00:00 27.3 10 Sudeste 19 Sudeste 0 -- -- 51
2020-07-15 12:00:00 25.4 5 Sudeste 14 Sudeste 0 -- -- 55
2020-07-15 11:00:00 23.5 4 Sudoeste 10 Oeste 0 -- -- 58
2020-07-15 10:00:00 21 6 Sudoeste 13 Sudoeste 0 -- -- 70
2020-07-15 09:00:00 18.6 5 Oeste 8 Sudoeste 0 -- -- 80
2020-07-15 08:00:00 16 3 Oeste 6 Oeste 0 -- -- 88
2020-07-15 07:00:00 14.4 2 Noroeste 7 Nordeste 0 -- -- 93
2020-07-15 06:00:00 14.3 3 Noroeste 6 Noroeste 0 -- -- 93
2020-07-15 05:00:00 14.6 0 Calma 6 Nordeste 0 -- -- 93
2020-07-15 04:00:00 15 4 Norte 6 Nordeste 0 -- -- 93
2020-07-15 03:00:00 15.4 3 Nordeste 8 Este 0 -- -- 93
2020-07-15 02:00:00 15.7 5 Este 9 Norte 0 -- -- 92
2020-07-15 01:00:00 16.6 3 Norte 6 Noroeste 0 -- -- 93
2020-07-15 00:00:00 17.1 3 Nordeste 10 Noroeste 0 -- -- 92
2020-07-14 23:00:00 17.9 0 Calma 6 Nordeste 0 -- -- 92
2020-07-14 22:00:00 19.2 4 Sudoeste 8 Sudoeste 0 -- -- 89
2020-07-14 21:00:00 22.2 3 Sur 10 Nordeste 0 -- -- 79
2020-07-14 20:00:00 19.2 9 Nordeste 19 Sudeste 0.4 -- -- 90
2020-07-14 19:00:00 19.4 6 Oeste 17 Este 1 -- -- 89
2020-07-14 18:00:00 20.3 11 Este 35 Sudeste 1.2 -- -- 83
2020-07-14 17:00:00 24.1 18 Este 36 Sudeste 0 -- -- 62
2020-07-14 16:00:00 26.8 17 Sudeste 32 Sudeste 0 -- -- 56
2020-07-14 15:00:00 27.5 17 Sudeste 35 Sudeste 0 -- -- 55
2020-07-14 14:00:00 28.1 14 Sudeste 31 Sudeste 0 -- -- 50
2020-07-14 13:00:00 27.4 18 Sudeste 33 Sudeste 0 -- -- 49
2020-07-14 12:00:00 25.8 14 Sur 23 Sudeste 0 -- -- 53
2020-07-14 11:00:00 24.2 7 Sur 13 Sur 0 -- -- 65
2020-07-14 10:00:00 22.1 2 Norte 5 Noroeste 0 -- -- 79
2020-07-14 09:00:00 21.4 0 Calma 6 Oeste 0 -- -- 85
2020-07-14 08:00:00 20 4 Oeste 8 Noroeste 0 -- -- 90
2020-07-14 07:00:00 19.2 0 Calma 4 Noroeste 0 -- -- 93
2020-07-14 06:00:00 19.4 0 Calma 5 Noroeste 0 -- -- 93
2020-07-14 05:00:00 19.3 2 Sudoeste 6 Norte 0 -- -- 93
2020-07-14 04:00:00 19.3 0 Calma 5 Norte 0 -- -- 93
2020-07-14 03:00:00 19.4 2 Nordeste 8 Norte 0.2 -- -- 91
2020-07-14 02:00:00 20.3 4 Norte 7 Norte 2 -- -- 87
2020-07-14 01:00:00 21.9 0 Calma 12 Este 0 -- -- 75
2020-07-14 00:00:00 22 8 Este 15 Este 0 -- -- 74
2020-07-13 23:00:00 22.5 7 Sudeste 15 Sudeste 0 -- -- 71
2020-07-13 22:00:00 23.3 10 Sudeste 21 Sudeste 0 -- -- 68
2020-07-13 21:00:00 24.2 12 Sudeste 29 Sudeste 0 -- -- 62
2020-07-13 20:00:00 26.9 18 Sudeste 30 Sudeste 0 -- -- 56
2020-07-13 19:00:00 28.8 17 Sudeste 33 Sudeste 0 -- -- 54
2020-07-13 18:00:00 30 18 Sudeste 29 Sudeste 0 -- -- 50
2020-07-13 17:00:00 30.6 14 Sudeste 24 Sur 0 -- -- 46
2020-07-13 16:00:00 30 12 Sudeste 23 Sudeste 0 -- -- 50
2020-07-13 15:00:00 29 12 Sur 26 Sur 0 -- -- 52
2020-07-13 14:00:00 27.9 11 Sudeste 20 Sur 0 -- -- 55
2020-07-13 13:00:00 27 9 Sudeste 19 Sudeste 0 -- -- 52
2020-07-13 12:00:00 27 9 Sudeste 16 Sudeste 0 -- -- 53
2020-07-13 11:00:00 26.4 3 Sudeste 8 Sudeste 0 -- -- 51
2020-07-13 10:00:00 24 3 Nordeste 6 Sudoeste 0 -- -- 66
2020-07-13 09:00:00 20.9 0 Calma -- -- 0.2 -- -- 80
2020-07-13 08:00:00 18.7 0 Calma 3 Norte 0 -- -- 89
2020-07-13 07:00:00 17.5 2 Noroeste 5 Nordeste 0 -- -- 91
2020-07-13 06:00:00 18.1 0 Calma 6 Norte 0 -- -- 91
2020-07-13 05:00:00 18.5 3 Norte 7 Norte 0 -- -- 90
2020-07-13 04:00:00 19.2 4 Noroeste 11 Norte 0 -- -- 87
2020-07-13 03:00:00 19.2 6 Nordeste 14 Noroeste 0 -- -- 88
2020-07-13 02:00:00 18.8 3 Norte 16 Este 0 -- -- 90
2020-07-13 01:00:00 19.7 9 Norte 30 Noroeste 0 -- -- 85
2020-07-13 00:00:00 19.2 10 Nordeste 22 Este 0 -- -- 89